sensor_id;sensor_type;location;lat;lon;timestamp;temperature;humidity
5705;DHT22;2877;48.238;11.160;2023-09-19T00:01:40;16.30;99.90
5705;DHT22;2877;48.238;11.160;2023-09-19T00:04:07;16.30;99.90
5705;DHT22;2877;48.238;11.160;2023-09-19T00:06:44;16.30;99.90
5705;DHT22;2877;48.238;11.160;2023-09-19T00:09:10;16.20;99.90
5705;DHT22;2877;48.238;11.160;2023-09-19T00:11:36;16.20;99.90
5705;DHT22;2877;48.238;11.160;2023-09-19T00:14:03;16.20;99.90
5705;DHT22;2877;48.238;11.160;2023-09-19T00:16:30;16.10;99.90
5705;DHT22;2877;48.238;11.160;2023-09-19T00:18:55;16.10;99.90
5705;DHT22;2877;48.238;11.160;2023-09-19T00:21:21;16.10;99.90
5705;DHT22;2877;48.238;11.160;2023-09-19T00:23:47;16.20;99.90
5705;DHT22;2877;48.238;11.160;2023-09-19T00:26:12;16.10;99.90
5705;DHT22;2877;48.238;11.160;2023-09-19T00:28:38;16.10;99.90
5705;DHT22;2877;48.238;11.160;2023-09-19T00:31:05;16.10;99.90
5705;DHT22;2877;48.238;11.160;2023-09-19T00:33:34;16.10;99.90
5705;DHT22;2877;48.238;11.160;2023-09-19T00:35:59;16.10;99.90
5705;DHT22;2877;48.238;11.160;2023-09-19T00:38:27;16.10;99.90
5705;DHT22;2877;48.238;11.160;2023-09-19T00:40:53;16.10;99.90
5705;DHT22;2877;48.238;11.160;2023-09-19T00:43:20;16.10;99.90
5705;DHT22;2877;48.238;11.160;2023-09-19T00:45:51;16.10;99.90
5705;DHT22;2877;48.238;11.160;2023-09-19T00:48:16;16.10;99.90
5705;DHT22;2877;48.238;11.160;2023-09-19T00:50:44;16.10;99.90
5705;DHT22;2877;48.238;11.160;2023-09-19T00:53:14;16.00;99.90
5705;DHT22;2877;48.238;11.160;2023-09-19T00:55:40;16.10;99.90
5705;DHT22;2877;48.238;11.160;2023-09-19T00:58:08;16.10;99.90
5705;DHT22;2877;48.238;11.160;2023-09-19T01:00:35;16.10;99.90
5705;DHT22;2877;48.238;11.160;2023-09-19T01:03:01;16.10;99.90
5705;DHT22;2877;48.238;11.160;2023-09-19T01:05:27;16.10;99.90
5705;DHT22;2877;48.238;11.160;2023-09-19T01:07:53;16.10;99.90
5705;DHT22;2877;48.238;11.160;2023-09-19T01:10:20;16.10;99.90
5705;DHT22;2877;48.238;11.160;2023-09-19T01:13:20;16.10;99.90
5705;DHT22;2877;48.238;11.160;2023-09-19T01:19:19;15.80;99.90
5705;DHT22;2877;48.238;11.160;2023-09-19T01:22:05;15.70;99.90
5705;DHT22;2877;48.238;11.160;2023-09-19T01:30:20;15.60;99.90
5705;DHT22;2877;48.238;11.160;2023-09-19T01:32:50;15.60;99.90
5705;DHT22;2877;48.238;11.160;2023-09-19T01:35:18;15.60;99.90
5705;DHT22;2877;48.238;11.160;2023-09-19T01:37:44;15.70;99.90
5705;DHT22;2877;48.238;11.160;2023-09-19T01:40:12;15.70;99.90
5705;DHT22;2877;48.238;11.160;2023-09-19T01:42:57;15.70;99.90
5705;DHT22;2877;48.238;11.160;2023-09-19T01:50:59;15.60;99.90
5705;DHT22;2877;48.238;11.160;2023-09-19T01:55:57;15.60;99.90
5705;DHT22;2877;48.238;11.160;2023-09-19T01:58:33;15.60;99.90
5705;DHT22;2877;48.238;11.160;2023-09-19T02:01:00;15.60;99.90
5705;DHT22;2877;48.238;11.160;2023-09-19T02:03:27;15.60;99.90
5705;DHT22;2877;48.238;11.160;2023-09-19T02:05:54;15.60;99.90
5705;DHT22;2877;48.238;11.160;2023-09-19T02:08:21;15.50;99.90
5705;DHT22;2877;48.238;11.160;2023-09-19T02:10:49;15.50;99.90
5705;DHT22;2877;48.238;11.160;2023-09-19T02:13:16;15.50;99.90
5705;DHT22;2877;48.238;11.160;2023-09-19T02:15:42;15.50;99.90
5705;DHT22;2877;48.238;11.160;2023-09-19T02:18:10;15.50;99.90
5705;DHT22;2877;48.238;11.160;2023-09-19T02:20:37;15.40;99.90
5705;DHT22;2877;48.238;11.160;2023-09-19T02:23:03;15.40;99.90
5705;DHT22;2877;48.238;11.160;2023-09-19T02:25:29;15.40;99.90
5705;DHT22;2877;48.238;11.160;2023-09-19T02:27:54;15.30;99.90
5705;DHT22;2877;48.238;11.160;2023-09-19T02:30:24;15.30;99.90
5705;DHT22;2877;48.238;11.160;2023-09-19T02:32:51;15.20;99.90
5705;DHT22;2877;48.238;11.160;2023-09-19T02:35:16;15.20;99.90
5705;DHT22;2877;48.238;11.160;2023-09-19T02:37:45;15.20;99.90
5705;DHT22;2877;48.238;11.160;2023-09-19T02:40:11;15.20;99.90
5705;DHT22;2877;48.238;11.160;2023-09-19T02:42:52;15.30;99.90
5705;DHT22;2877;48.238;11.160;2023-09-19T02:45:18;15.30;99.90
5705;DHT22;2877;48.238;11.160;2023-09-19T02:47:47;15.40;99.90
5705;DHT22;2877;48.238;11.160;2023-09-19T02:50:13;15.40;99.90
5705;DHT22;2877;48.238;11.160;2023-09-19T02:52:42;15.50;99.90
5705;DHT22;2877;48.238;11.160;2023-09-19T02:55:12;15.50;99.90
5705;DHT22;2877;48.238;11.160;2023-09-19T02:57:39;15.40;99.90
5705;DHT22;2877;48.238;11.160;2023-09-19T03:00:08;15.40;99.90
5705;DHT22;2877;48.238;11.160;2023-09-19T03:02:36;15.40;99.90
5705;DHT22;2877;48.238;11.160;2023-09-19T03:05:02;15.40;99.90
5705;DHT22;2877;48.238;11.160;2023-09-19T03:07:28;15.40;99.90
5705;DHT22;2877;48.238;11.160;2023-09-19T03:09:54;15.40;99.90
5705;DHT22;2877;48.238;11.160;2023-09-19T03:12:20;15.30;99.90
5705;DHT22;2877;48.238;11.160;2023-09-19T03:14:46;15.30;99.90
5705;DHT22;2877;48.238;11.160;2023-09-19T03:17:11;15.30;99.90
5705;DHT22;2877;48.238;11.160;2023-09-19T03:19:39;15.30;99.90
5705;DHT22;2877;48.238;11.160;2023-09-19T03:22:05;15.40;99.90
5705;DHT22;2877;48.238;11.160;2023-09-19T03:24:31;15.40;99.90
5705;DHT22;2877;48.238;11.160;2023-09-19T03:26:57;15.40;99.90
5705;DHT22;2877;48.238;11.160;2023-09-19T03:29:22;15.40;99.90
5705;DHT22;2877;48.238;11.160;2023-09-19T03:31:48;15.50;99.90
5705;DHT22;2877;48.238;11.160;2023-09-19T03:34:14;15.50;99.90
5705;DHT22;2877;48.238;11.160;2023-09-19T03:36:39;15.50;99.90
5705;DHT22;2877;48.238;11.160;2023-09-19T03:39:06;15.50;99.90
5705;DHT22;2877;48.238;11.160;2023-09-19T03:41:32;15.50;99.90
5705;DHT22;2877;48.238;11.160;2023-09-19T03:43:58;15.50;99.90
5705;DHT22;2877;48.238;11.160;2023-09-19T03:46:24;15.60;99.90
5705;DHT22;2877;48.238;11.160;2023-09-19T03:48:50;15.50;99.90
5705;DHT22;2877;48.238;11.160;2023-09-19T03:51:15;15.50;99.90
5705;DHT22;2877;48.238;11.160;2023-09-19T03:53:41;15.50;99.90
5705;DHT22;2877;48.238;11.160;2023-09-19T03:56:07;15.50;99.90
5705;DHT22;2877;48.238;11.160;2023-09-19T03:58:33;15.60;99.90
5705;DHT22;2877;48.238;11.160;2023-09-19T04:01:03;15.60;99.90
5705;DHT22;2877;48.238;11.160;2023-09-19T04:03:29;15.60;99.90
5705;DHT22;2877;48.238;11.160;2023-09-19T04:06:01;15.70;99.90
5705;DHT22;2877;48.238;11.160;2023-09-19T04:08:27;15.70;99.90
5705;DHT22;2877;48.238;11.160;2023-09-19T04:10:52;15.80;99.90
5705;DHT22;2877;48.238;11.160;2023-09-19T04:13:18;15.80;99.90
5705;DHT22;2877;48.238;11.160;2023-09-19T04:15:44;15.80;99.90
5705;DHT22;2877;48.238;11.160;2023-09-19T04:18:12;15.80;99.90
5705;DHT22;2877;48.238;11.160;2023-09-19T04:20:37;15.90;99.90
5705;DHT22;2877;48.238;11.160;2023-09-19T04:23:03;15.90;99.90
5705;DHT22;2877;48.238;11.160;2023-09-19T04:25:30;15.90;99.90
5705;DHT22;2877;48.238;11.160;2023-09-19T04:27:57;15.90;99.90
5705;DHT22;2877;48.238;11.160;2023-09-19T04:30:23;16.00;99.90
5705;DHT22;2877;48.238;11.160;2023-09-19T04:32:48;16.00;99.90
5705;DHT22;2877;48.238;11.160;2023-09-19T04:35:16;16.00;99.90
5705;DHT22;2877;48.238;11.160;2023-09-19T04:37:41;15.90;99.90
5705;DHT22;2877;48.238;11.160;2023-09-19T04:40:08;15.90;99.90
5705;DHT22;2877;48.238;11.160;2023-09-19T04:42:44;15.80;99.90
5705;DHT22;2877;48.238;11.160;2023-09-19T04:45:10;15.80;99.90
5705;DHT22;2877;48.238;11.160;2023-09-19T04:47:37;15.70;99.90
5705;DHT22;2877;48.238;11.160;2023-09-19T04:50:05;15.60;99.90
5705;DHT22;2877;48.238;11.160;2023-09-19T04:52:31;15.60;99.90
5705;DHT22;2877;48.238;11.160;2023-09-19T04:54:57;15.60;99.90
5705;DHT22;2877;48.238;11.160;2023-09-19T04:57:23;15.60;99.90
5705;DHT22;2877;48.238;11.160;2023-09-19T04:59:50;15.60;99.90
5705;DHT22;2877;48.238;11.160;2023-09-19T05:02:16;15.50;99.90
5705;DHT22;2877;48.238;11.160;2023-09-19T05:04:41;15.50;99.90
5705;DHT22;2877;48.238;11.160;2023-09-19T05:07:07;15.50;99.90
5705;DHT22;2877;48.238;11.160;2023-09-19T05:09:32;15.50;99.90
5705;DHT22;2877;48.238;11.160;2023-09-19T05:12:00;15.50;99.90
5705;DHT22;2877;48.238;11.160;2023-09-19T05:14:25;15.60;99.90
5705;DHT22;2877;48.238;11.160;2023-09-19T05:16:51;15.60;99.90
5705;DHT22;2877;48.238;11.160;2023-09-19T05:19:17;15.60;99.90
5705;DHT22;2877;48.238;11.160;2023-09-19T05:21:42;15.60;99.90
5705;DHT22;2877;48.238;11.160;2023-09-19T05:24:08;15.60;99.90
5705;DHT22;2877;48.238;11.160;2023-09-19T05:26:33;15.60;99.90
5705;DHT22;2877;48.238;11.160;2023-09-19T05:28:59;15.60;99.90
5705;DHT22;2877;48.238;11.160;2023-09-19T05:31:26;15.60;99.90
5705;DHT22;2877;48.238;11.160;2023-09-19T05:33:53;15.60;99.90
5705;DHT22;2877;48.238;11.160;2023-09-19T05:36:20;15.70;99.90
5705;DHT22;2877;48.238;11.160;2023-09-19T05:38:46;15.70;99.90
5705;DHT22;2877;48.238;11.160;2023-09-19T05:41:15;15.70;99.90
5705;DHT22;2877;48.238;11.160;2023-09-19T05:43:43;15.70;99.90
5705;DHT22;2877;48.238;11.160;2023-09-19T05:46:09;15.70;99.90
5705;DHT22;2877;48.238;11.160;2023-09-19T05:48:34;15.80;99.90
5705;DHT22;2877;48.238;11.160;2023-09-19T05:51:00;15.80;99.90
5705;DHT22;2877;48.238;11.160;2023-09-19T05:53:26;15.80;99.90
5705;DHT22;2877;48.238;11.160;2023-09-19T05:55:51;15.80;99.90
5705;DHT22;2877;48.238;11.160;2023-09-19T05:58:19;15.80;99.90
5705;DHT22;2877;48.238;11.160;2023-09-19T06:00:45;15.90;99.90
5705;DHT22;2877;48.238;11.160;2023-09-19T06:03:12;15.90;99.90
5705;DHT22;2877;48.238;11.160;2023-09-19T06:05:40;15.90;99.90
5705;DHT22;2877;48.238;11.160;2023-09-19T06:08:06;15.90;99.90
5705;DHT22;2877;48.238;11.160;2023-09-19T06:10:33;16.00;99.90
5705;DHT22;2877;48.238;11.160;2023-09-19T06:12:59;16.00;99.90
5705;DHT22;2877;48.238;11.160;2023-09-19T06:15:25;16.10;99.90
5705;DHT22;2877;48.238;11.160;2023-09-19T06:17:55;16.10;99.90
5705;DHT22;2877;48.238;11.160;2023-09-19T06:20:22;16.10;99.90
5705;DHT22;2877;48.238;11.160;2023-09-19T06:22:49;16.10;99.90
5705;DHT22;2877;48.238;11.160;2023-09-19T06:25:16;16.20;99.90
5705;DHT22;2877;48.238;11.160;2023-09-19T06:27:48;16.30;99.90
5705;DHT22;2877;48.238;11.160;2023-09-19T06:30:14;16.50;99.90
5705;DHT22;2877;48.238;11.160;2023-09-19T06:32:41;16.70;99.90
5705;DHT22;2877;48.238;11.160;2023-09-19T06:35:10;16.90;99.90
5705;DHT22;2877;48.238;11.160;2023-09-19T06:37:37;16.90;99.90
5705;DHT22;2877;48.238;11.160;2023-09-19T06:40:13;16.90;99.90
5705;DHT22;2877;48.238;11.160;2023-09-19T06:42:43;17.00;99.90
5705;DHT22;2877;48.238;11.160;2023-09-19T06:45:11;17.00;99.90
5705;DHT22;2877;48.238;11.160;2023-09-19T06:47:39;17.10;99.90
5705;DHT22;2877;48.238;11.160;2023-09-19T06:50:05;17.00;99.90
5705;DHT22;2877;48.238;11.160;2023-09-19T06:52:32;17.00;99.90
5705;DHT22;2877;48.238;11.160;2023-09-19T06:54:58;17.10;99.90
5705;DHT22;2877;48.238;11.160;2023-09-19T06:57:24;17.10;99.90
5705;DHT22;2877;48.238;11.160;2023-09-19T06:59:50;17.10;99.90
5705;DHT22;2877;48.238;11.160;2023-09-19T07:02:15;17.20;99.90
5705;DHT22;2877;48.238;11.160;2023-09-19T07:04:41;17.30;99.90
5705;DHT22;2877;48.238;11.160;2023-09-19T07:07:06;17.20;99.90
5705;DHT22;2877;48.238;11.160;2023-09-19T07:09:34;17.30;99.90
5705;DHT22;2877;48.238;11.160;2023-09-19T07:12:00;17.20;99.90
5705;DHT22;2877;48.238;11.160;2023-09-19T07:14:25;17.30;99.90
5705;DHT22;2877;48.238;11.160;2023-09-19T07:16:51;17.40;99.90
5705;DHT22;2877;48.238;11.160;2023-09-19T07:19:17;17.70;99.90
5705;DHT22;2877;48.238;11.160;2023-09-19T07:21:43;17.90;99.90
5705;DHT22;2877;48.238;11.160;2023-09-19T07:24:08;17.80;99.90
5705;DHT22;2877;48.238;11.160;2023-09-19T07:26:34;17.80;99.90
5705;DHT22;2877;48.238;11.160;2023-09-19T07:29:00;17.90;99.90
5705;DHT22;2877;48.238;11.160;2023-09-19T07:31:27;17.90;99.90
5705;DHT22;2877;48.238;11.160;2023-09-19T07:33:54;17.80;99.90
5705;DHT22;2877;48.238;11.160;2023-09-19T07:36:19;17.80;99.90
5705;DHT22;2877;48.238;11.160;2023-09-19T07:38:45;17.70;99.90
5705;DHT22;2877;48.238;11.160;2023-09-19T07:41:11;17.70;99.90
5705;DHT22;2877;48.238;11.160;2023-09-19T07:43:36;17.60;99.90
5705;DHT22;2877;48.238;11.160;2023-09-19T07:46:07;17.50;99.90
5705;DHT22;2877;48.238;11.160;2023-09-19T07:48:37;17.50;99.90
5705;DHT22;2877;48.238;11.160;2023-09-19T07:51:05;17.50;99.90
5705;DHT22;2877;48.238;11.160;2023-09-19T07:53:31;17.40;99.90
5705;DHT22;2877;48.238;11.160;2023-09-19T07:56:04;17.30;99.90
5705;DHT22;2877;48.238;11.160;2023-09-19T07:58:30;17.30;99.90
5705;DHT22;2877;48.238;11.160;2023-09-19T08:01:01;17.40;99.90
5705;DHT22;2877;48.238;11.160;2023-09-19T08:03:28;17.50;99.90
5705;DHT22;2877;48.238;11.160;2023-09-19T08:05:56;17.70;99.90
5705;DHT22;2877;48.238;11.160;2023-09-19T08:08:23;17.70;99.90
5705;DHT22;2877;48.238;11.160;2023-09-19T08:10:53;17.80;99.90
5705;DHT22;2877;48.238;11.160;2023-09-19T08:13:18;17.90;99.90
5705;DHT22;2877;48.238;11.160;2023-09-19T08:15:44;18.10;99.90
5705;DHT22;2877;48.238;11.160;2023-09-19T08:18:10;18.20;99.90
5705;DHT22;2877;48.238;11.160;2023-09-19T08:20:38;18.30;99.90
5705;DHT22;2877;48.238;11.160;2023-09-19T08:23:07;18.40;99.90
5705;DHT22;2877;48.238;11.160;2023-09-19T08:25:34;18.60;99.90
5705;DHT22;2877;48.238;11.160;2023-09-19T08:28:00;18.70;99.90
5705;DHT22;2877;48.238;11.160;2023-09-19T08:30:27;18.80;99.90
5705;DHT22;2877;48.238;11.160;2023-09-19T08:32:58;18.90;99.90
5705;DHT22;2877;48.238;11.160;2023-09-19T08:35:24;18.70;99.90
5705;DHT22;2877;48.238;11.160;2023-09-19T08:37:50;18.80;99.90
5705;DHT22;2877;48.238;11.160;2023-09-19T08:40:16;18.80;99.90
5705;DHT22;2877;48.238;11.160;2023-09-19T08:45:15;18.90;99.90
5705;DHT22;2877;48.238;11.160;2023-09-19T08:47:46;19.10;99.90
5705;DHT22;2877;48.238;11.160;2023-09-19T08:50:26;19.40;99.90
5705;DHT22;2877;48.238;11.160;2023-09-19T08:52:55;19.70;99.90
5705;DHT22;2877;48.238;11.160;2023-09-19T08:55:28;19.80;99.90
5705;DHT22;2877;48.238;11.160;2023-09-19T08:58:00;19.80;99.90
5705;DHT22;2877;48.238;11.160;2023-09-19T09:00:27;19.70;99.90
5705;DHT22;2877;48.238;11.160;2023-09-19T09:02:55;19.50;99.90
5705;DHT22;2877;48.238;11.160;2023-09-19T09:05:21;19.60;99.90
5705;DHT22;2877;48.238;11.160;2023-09-19T09:07:49;19.90;99.90
5705;DHT22;2877;48.238;11.160;2023-09-19T09:10:18;20.20;99.90
5705;DHT22;2877;48.238;11.160;2023-09-19T09:12:50;20.40;99.90
5705;DHT22;2877;48.238;11.160;2023-09-19T09:15:18;20.50;99.90
5705;DHT22;2877;48.238;11.160;2023-09-19T09:17:47;20.80;99.90
5705;DHT22;2877;48.238;11.160;2023-09-19T09:20:14;20.80;99.90
5705;DHT22;2877;48.238;11.160;2023-09-19T09:22:51;21.00;99.90
5705;DHT22;2877;48.238;11.160;2023-09-19T09:25:17;21.00;99.90
5705;DHT22;2877;48.238;11.160;2023-09-19T09:27:45;20.90;99.90
5705;DHT22;2877;48.238;11.160;2023-09-19T09:30:32;20.70;99.90
5705;DHT22;2877;48.238;11.160;2023-09-19T09:33:11;20.50;99.90
5705;DHT22;2877;48.238;11.160;2023-09-19T09:35:57;20.70;99.90
5705;DHT22;2877;48.238;11.160;2023-09-19T09:38:26;20.70;99.90
5705;DHT22;2877;48.238;11.160;2023-09-19T09:40:59;20.70;99.90
5705;DHT22;2877;48.238;11.160;2023-09-19T09:43:33;20.40;99.90
5705;DHT22;2877;48.238;11.160;2023-09-19T09:46:16;20.40;99.90
5705;DHT22;2877;48.238;11.160;2023-09-19T09:51:38;20.50;99.90
5705;DHT22;2877;48.238;11.160;2023-09-19T09:54:18;20.50;99.90
5705;DHT22;2877;48.238;11.160;2023-09-19T09:56:57;20.70;99.90
5705;DHT22;2877;48.238;11.160;2023-09-19T09:59:55;21.00;99.90
5705;DHT22;2877;48.238;11.160;2023-09-19T10:02:30;21.20;99.90
5705;DHT22;2877;48.238;11.160;2023-09-19T10:05:20;21.50;99.90
5705;DHT22;2877;48.238;11.160;2023-09-19T10:07:52;21.60;99.90
5705;DHT22;2877;48.238;11.160;2023-09-19T10:10:38;21.30;99.90
5705;DHT22;2877;48.238;11.160;2023-09-19T10:13:09;20.90;99.90
5705;DHT22;2877;48.238;11.160;2023-09-19T10:15:42;21.00;99.90
5705;DHT22;2877;48.238;11.160;2023-09-19T10:18:14;20.80;99.90
5705;DHT22;2877;48.238;11.160;2023-09-19T10:20:45;20.80;99.90
5705;DHT22;2877;48.238;11.160;2023-09-19T10:23:11;21.00;99.90
5705;DHT22;2877;48.238;11.160;2023-09-19T10:25:42;21.20;99.90
5705;DHT22;2877;48.238;11.160;2023-09-19T10:28:10;21.30;99.90
5705;DHT22;2877;48.238;11.160;2023-09-19T10:30:45;21.20;99.90
5705;DHT22;2877;48.238;11.160;2023-09-19T10:33:13;21.10;99.90
5705;DHT22;2877;48.238;11.160;2023-09-19T10:35:42;20.90;99.90
5705;DHT22;2877;48.238;11.160;2023-09-19T10:38:10;21.40;99.90
5705;DHT22;2877;48.238;11.160;2023-09-19T10:40:37;21.80;99.90
5705;DHT22;2877;48.238;11.160;2023-09-19T10:43:17;21.90;99.90
5705;DHT22;2877;48.238;11.160;2023-09-19T10:45:50;21.80;99.90
5705;DHT22;2877;48.238;11.160;2023-09-19T10:48:18;22.00;99.90
5705;DHT22;2877;48.238;11.160;2023-09-19T10:51:04;22.00;99.90
5705;DHT22;2877;48.238;11.160;2023-09-19T10:56:08;21.90;99.90
5705;DHT22;2877;48.238;11.160;2023-09-19T10:58:40;22.20;99.90
5705;DHT22;2877;48.238;11.160;2023-09-19T11:01:11;22.10;99.90
5705;DHT22;2877;48.238;11.160;2023-09-19T11:03:43;21.80;99.90
5705;DHT22;2877;48.238;11.160;2023-09-19T11:06:16;21.60;99.90
5705;DHT22;2877;48.238;11.160;2023-09-19T11:30:51;19.40;99.90
5705;DHT22;2877;48.238;11.160;2023-09-19T11:33:30;19.50;99.90
5705;DHT22;2877;48.238;11.160;2023-09-19T11:43:50;20.40;99.90
5705;DHT22;2877;48.238;11.160;2023-09-19T11:46:17;20.90;99.90
5705;DHT22;2877;48.238;11.160;2023-09-19T11:48:47;21.40;99.90
5705;DHT22;2877;48.238;11.160;2023-09-19T11:51:16;21.40;99.90
5705;DHT22;2877;48.238;11.160;2023-09-19T11:53:48;21.60;99.90
5705;DHT22;2877;48.238;11.160;2023-09-19T11:56:22;21.60;99.90
5705;DHT22;2877;48.238;11.160;2023-09-19T11:58:50;21.00;99.90
5705;DHT22;2877;48.238;11.160;2023-09-19T12:01:30;20.70;99.90
5705;DHT22;2877;48.238;11.160;2023-09-19T12:03:59;20.40;99.90
5705;DHT22;2877;48.238;11.160;2023-09-19T12:06:25;19.90;99.90
5705;DHT22;2877;48.238;11.160;2023-09-19T12:08:52;19.40;99.90
5705;DHT22;2877;48.238;11.160;2023-09-19T12:11:20;19.20;99.90
5705;DHT22;2877;48.238;11.160;2023-09-19T12:13:47;18.90;99.90
5705;DHT22;2877;48.238;11.160;2023-09-19T12:18:40;18.80;99.90
5705;DHT22;2877;48.238;11.160;2023-09-19T12:21:24;18.90;99.90
5705;DHT22;2877;48.238;11.160;2023-09-19T12:26:28;20.20;99.90
5705;DHT22;2877;48.238;11.160;2023-09-19T12:28:55;21.10;99.90
5705;DHT22;2877;48.238;11.160;2023-09-19T12:31:21;22.00;99.90
5705;DHT22;2877;48.238;11.160;2023-09-19T12:33:56;22.40;99.90
5705;DHT22;2877;48.238;11.160;2023-09-19T12:36:25;22.50;99.90
5705;DHT22;2877;48.238;11.160;2023-09-19T12:38:55;23.40;99.90
5705;DHT22;2877;48.238;11.160;2023-09-19T12:41:21;23.70;99.90
5705;DHT22;2877;48.238;11.160;2023-09-19T12:43:51;23.70;99.90
5705;DHT22;2877;48.238;11.160;2023-09-19T12:46:20;23.80;99.90
5705;DHT22;2877;48.238;11.160;2023-09-19T12:49:19;24.40;99.90
5705;DHT22;2877;48.238;11.160;2023-09-19T12:51:46;24.80;99.90
5705;DHT22;2877;48.238;11.160;2023-09-19T12:54:13;25.30;99.90
5705;DHT22;2877;48.238;11.160;2023-09-19T12:56:45;24.90;99.90
5705;DHT22;2877;48.238;11.160;2023-09-19T12:59:13;24.60;99.90
5705;DHT22;2877;48.238;11.160;2023-09-19T13:01:42;24.20;99.90
5705;DHT22;2877;48.238;11.160;2023-09-19T13:04:15;23.80;99.90
5705;DHT22;2877;48.238;11.160;2023-09-19T13:06:49;23.00;99.90
5705;DHT22;2877;48.238;11.160;2023-09-19T13:09:16;22.10;99.90
5705;DHT22;2877;48.238;11.160;2023-09-19T13:11:43;21.60;99.90
5705;DHT22;2877;48.238;11.160;2023-09-19T13:16:55;20.90;99.90
5705;DHT22;2877;48.238;11.160;2023-09-19T13:22:03;22.10;99.90
5705;DHT22;2877;48.238;11.160;2023-09-19T13:24:28;22.40;99.90
5705;DHT22;2877;48.238;11.160;2023-09-19T13:26:56;22.60;99.90
5705;DHT22;2877;48.238;11.160;2023-09-19T13:29:22;22.30;99.90
5705;DHT22;2877;48.238;11.160;2023-09-19T13:31:48;22.00;99.90
5705;DHT22;2877;48.238;11.160;2023-09-19T13:34:14;21.80;99.90
5705;DHT22;2877;48.238;11.160;2023-09-19T13:36:42;21.80;99.90
5705;DHT22;2877;48.238;11.160;2023-09-19T13:39:08;21.90;99.90
5705;DHT22;2877;48.238;11.160;2023-09-19T13:41:35;21.90;99.90
5705;DHT22;2877;48.238;11.160;2023-09-19T13:44:04;21.50;99.90
5705;DHT22;2877;48.238;11.160;2023-09-19T13:46:30;21.30;99.90
5705;DHT22;2877;48.238;11.160;2023-09-19T13:48:58;21.50;99.90
5705;DHT22;2877;48.238;11.160;2023-09-19T13:51:26;22.20;99.90
5705;DHT22;2877;48.238;11.160;2023-09-19T13:53:51;22.60;99.90
5705;DHT22;2877;48.238;11.160;2023-09-19T13:56:17;22.50;99.90
5705;DHT22;2877;48.238;11.160;2023-09-19T13:58:42;22.00;99.90
5705;DHT22;2877;48.238;11.160;2023-09-19T14:01:08;21.70;99.90
5705;DHT22;2877;48.238;11.160;2023-09-19T14:03:42;21.80;99.90
5705;DHT22;2877;48.238;11.160;2023-09-19T14:06:16;21.70;99.90
5705;DHT22;2877;48.238;11.160;2023-09-19T14:08:42;21.60;99.90
5705;DHT22;2877;48.238;11.160;2023-09-19T14:11:08;21.30;99.90
5705;DHT22;2877;48.238;11.160;2023-09-19T14:13:34;21.30;99.90
5705;DHT22;2877;48.238;11.160;2023-09-19T14:16:06;21.20;99.90
5705;DHT22;2877;48.238;11.160;2023-09-19T14:18:35;21.10;99.90
5705;DHT22;2877;48.238;11.160;2023-09-19T14:21:07;21.10;99.90
5705;DHT22;2877;48.238;11.160;2023-09-19T14:23:37;21.20;99.90
5705;DHT22;2877;48.238;11.160;2023-09-19T14:26:02;21.30;99.90
5705;DHT22;2877;48.238;11.160;2023-09-19T14:28:28;21.30;99.90
5705;DHT22;2877;48.238;11.160;2023-09-19T14:30:55;21.20;99.90
5705;DHT22;2877;48.238;11.160;2023-09-19T14:33:21;21.30;99.90
5705;DHT22;2877;48.238;11.160;2023-09-19T14:35:47;21.40;99.90
5705;DHT22;2877;48.238;11.160;2023-09-19T14:38:14;21.40;99.90
5705;DHT22;2877;48.238;11.160;2023-09-19T14:40:39;21.30;99.90
5705;DHT22;2877;48.238;11.160;2023-09-19T14:43:05;21.20;99.90
5705;DHT22;2877;48.238;11.160;2023-09-19T14:45:35;21.00;99.90
5705;DHT22;2877;48.238;11.160;2023-09-19T14:48:01;20.90;99.90
5705;DHT22;2877;48.238;11.160;2023-09-19T14:50:30;20.90;99.90
5705;DHT22;2877;48.238;11.160;2023-09-19T14:52:56;20.90;99.90
5705;DHT22;2877;48.238;11.160;2023-09-19T14:55:22;21.30;99.90
5705;DHT22;2877;48.238;11.160;2023-09-19T14:57:51;21.40;99.90
5705;DHT22;2877;48.238;11.160;2023-09-19T15:00:18;21.70;99.90
5705;DHT22;2877;48.238;11.160;2023-09-19T15:02:46;21.80;99.90
5705;DHT22;2877;48.238;11.160;2023-09-19T15:05:13;21.70;99.90
5705;DHT22;2877;48.238;11.160;2023-09-19T15:07:40;21.80;99.90
5705;DHT22;2877;48.238;11.160;2023-09-19T15:10:06;21.70;99.90
5705;DHT22;2877;48.238;11.160;2023-09-19T15:12:36;21.50;99.90
5705;DHT22;2877;48.238;11.160;2023-09-19T15:15:06;21.50;99.90
5705;DHT22;2877;48.238;11.160;2023-09-19T15:17:35;21.50;99.90
5705;DHT22;2877;48.238;11.160;2023-09-19T15:20:01;21.60;99.90
5705;DHT22;2877;48.238;11.160;2023-09-19T15:22:27;21.60;99.90
5705;DHT22;2877;48.238;11.160;2023-09-19T15:24:53;21.70;99.90
5705;DHT22;2877;48.238;11.160;2023-09-19T15:27:18;21.70;99.90
5705;DHT22;2877;48.238;11.160;2023-09-19T15:29:45;21.70;99.90
5705;DHT22;2877;48.238;11.160;2023-09-19T15:32:11;21.70;99.90
5705;DHT22;2877;48.238;11.160;2023-09-19T15:34:37;21.60;99.90
5705;DHT22;2877;48.238;11.160;2023-09-19T15:37:02;21.50;99.90
5705;DHT22;2877;48.238;11.160;2023-09-19T15:39:30;21.50;99.90
5705;DHT22;2877;48.238;11.160;2023-09-19T15:41:58;21.40;99.90
5705;DHT22;2877;48.238;11.160;2023-09-19T15:44:24;21.30;99.90
5705;DHT22;2877;48.238;11.160;2023-09-19T15:46:52;21.10;99.90
5705;DHT22;2877;48.238;11.160;2023-09-19T15:49:18;21.00;99.90
5705;DHT22;2877;48.238;11.160;2023-09-19T15:51:43;20.90;99.90
5705;DHT22;2877;48.238;11.160;2023-09-19T15:54:13;20.80;99.90
5705;DHT22;2877;48.238;11.160;2023-09-19T15:56:40;20.80;99.90
5705;DHT22;2877;48.238;11.160;2023-09-19T15:59:09;20.70;99.90
5705;DHT22;2877;48.238;11.160;2023-09-19T16:01:37;20.70;99.90
5705;DHT22;2877;48.238;11.160;2023-09-19T16:04:03;20.60;99.90
5705;DHT22;2877;48.238;11.160;2023-09-19T16:06:30;20.60;99.90
5705;DHT22;2877;48.238;11.160;2023-09-19T16:08:58;20.60;99.90
5705;DHT22;2877;48.238;11.160;2023-09-19T16:11:25;20.60;99.90
5705;DHT22;2877;48.238;11.160;2023-09-19T16:13:51;20.50;99.90
5705;DHT22;2877;48.238;11.160;2023-09-19T16:16:20;20.50;99.90
5705;DHT22;2877;48.238;11.160;2023-09-19T16:19:01;20.50;99.90
5705;DHT22;2877;48.238;11.160;2023-09-19T16:21:30;20.50;99.90
5705;DHT22;2877;48.238;11.160;2023-09-19T16:23:58;20.40;99.90
5705;DHT22;2877;48.238;11.160;2023-09-19T16:26:24;20.40;99.90
5705;DHT22;2877;48.238;11.160;2023-09-19T16:28:52;20.40;99.90
5705;DHT22;2877;48.238;11.160;2023-09-19T16:31:18;20.30;99.90
5705;DHT22;2877;48.238;11.160;2023-09-19T16:33:45;20.30;99.90
5705;DHT22;2877;48.238;11.160;2023-09-19T16:36:13;20.20;99.90
5705;DHT22;2877;48.238;11.160;2023-09-19T16:38:39;20.10;99.90
5705;DHT22;2877;48.238;11.160;2023-09-19T16:41:06;20.00;99.90
5705;DHT22;2877;48.238;11.160;2023-09-19T16:43:33;19.90;99.90
5705;DHT22;2877;48.238;11.160;2023-09-19T16:46:01;19.80;99.90
5705;DHT22;2877;48.238;11.160;2023-09-19T16:48:28;19.80;99.90
5705;DHT22;2877;48.238;11.160;2023-09-19T16:51:08;19.70;99.90
5705;DHT22;2877;48.238;11.160;2023-09-19T16:53:35;19.60;99.90
5705;DHT22;2877;48.238;11.160;2023-09-19T16:56:11;19.60;99.90
5705;DHT22;2877;48.238;11.160;2023-09-19T16:58:41;19.50;99.90